sensor_id;sensor_type;location;lat;lon;timestamp;temperature;humidity
16901;DHT22;8567;52.540;6.434;2023-07-31T00:01:19;24.20;53.90
16901;DHT22;8567;52.540;6.434;2023-07-31T00:03:46;24.10;53.90
16901;DHT22;8567;52.540;6.434;2023-07-31T00:06:13;24.10;54.00
16901;DHT22;8567;52.540;6.434;2023-07-31T00:08:41;24.10;54.00
16901;DHT22;8567;52.540;6.434;2023-07-31T00:11:08;24.10;54.00
16901;DHT22;8567;52.540;6.434;2023-07-31T00:13:35;24.10;54.00
16901;DHT22;8567;52.540;6.434;2023-07-31T00:16:02;24.10;54.00
16901;DHT22;8567;52.540;6.434;2023-07-31T00:18:28;24.10;53.90
16901;DHT22;8567;52.540;6.434;2023-07-31T00:20:55;24.10;53.90
16901;DHT22;8567;52.540;6.434;2023-07-31T00:23:22;24.10;54.00
16901;DHT22;8567;52.540;6.434;2023-07-31T00:25:50;24.10;54.00
16901;DHT22;8567;52.540;6.434;2023-07-31T00:28:17;24.10;53.90
16901;DHT22;8567;52.540;6.434;2023-07-31T00:30:44;24.10;53.90
16901;DHT22;8567;52.540;6.434;2023-07-31T00:33:11;24.10;53.90
16901;DHT22;8567;52.540;6.434;2023-07-31T00:35:37;24.20;53.90
16901;DHT22;8567;52.540;6.434;2023-07-31T00:38:04;24.10;54.00
16901;DHT22;8567;52.540;6.434;2023-07-31T00:40:35;24.10;54.00
16901;DHT22;8567;52.540;6.434;2023-07-31T00:43:04;24.10;53.90
16901;DHT22;8567;52.540;6.434;2023-07-31T00:45:31;24.10;54.00
16901;DHT22;8567;52.540;6.434;2023-07-31T00:47:59;24.10;54.00
16901;DHT22;8567;52.540;6.434;2023-07-31T00:50:26;24.10;54.00
16901;DHT22;8567;52.540;6.434;2023-07-31T00:52:53;24.10;54.10
16901;DHT22;8567;52.540;6.434;2023-07-31T00:55:20;24.10;54.00
16901;DHT22;8567;52.540;6.434;2023-07-31T00:57:48;24.10;54.00
16901;DHT22;8567;52.540;6.434;2023-07-31T01:00:17;24.10;54.00
16901;DHT22;8567;52.540;6.434;2023-07-31T01:02:44;24.10;54.10
16901;DHT22;8567;52.540;6.434;2023-07-31T01:05:11;24.10;54.00
16901;DHT22;8567;52.540;6.434;2023-07-31T01:07:45;24.10;54.00
16901;DHT22;8567;52.540;6.434;2023-07-31T01:10:17;24.10;54.00
16901;DHT22;8567;52.540;6.434;2023-07-31T01:12:46;24.10;54.10
16901;DHT22;8567;52.540;6.434;2023-07-31T01:15:14;24.10;54.10
16901;DHT22;8567;52.540;6.434;2023-07-31T01:17:44;24.00;54.10
16901;DHT22;8567;52.540;6.434;2023-07-31T01:20:13;24.10;54.20
16901;DHT22;8567;52.540;6.434;2023-07-31T01:23:00;24.10;54.20
16901;DHT22;8567;52.540;6.434;2023-07-31T01:25:56;24.10;54.10
16901;DHT22;8567;52.540;6.434;2023-07-31T01:28:29;24.10;54.20
16901;DHT22;8567;52.540;6.434;2023-07-31T01:31:00;24.10;54.10
16901;DHT22;8567;52.540;6.434;2023-07-31T01:33:28;24.10;54.10
16901;DHT22;8567;52.540;6.434;2023-07-31T01:35:56;24.10;54.20
16901;DHT22;8567;52.540;6.434;2023-07-31T01:38:23;24.10;54.10
16901;DHT22;8567;52.540;6.434;2023-07-31T01:40:51;24.10;54.10
16901;DHT22;8567;52.540;6.434;2023-07-31T01:43:20;24.10;54.10
16901;DHT22;8567;52.540;6.434;2023-07-31T01:45:47;24.10;54.20
16901;DHT22;8567;52.540;6.434;2023-07-31T01:48:14;24.10;54.20
16901;DHT22;8567;52.540;6.434;2023-07-31T01:50:40;24.10;54.20
16901;DHT22;8567;52.540;6.434;2023-07-31T01:53:07;24.10;54.30
16901;DHT22;8567;52.540;6.434;2023-07-31T01:55:34;24.10;54.30
16901;DHT22;8567;52.540;6.434;2023-07-31T01:58:01;24.00;54.40
16901;DHT22;8567;52.540;6.434;2023-07-31T02:00:29;24.00;54.40
16901;DHT22;8567;52.540;6.434;2023-07-31T02:02:56;24.00;54.40
16901;DHT22;8567;52.540;6.434;2023-07-31T02:05:23;24.00;54.40
16901;DHT22;8567;52.540;6.434;2023-07-31T02:07:49;24.00;54.40
16901;DHT22;8567;52.540;6.434;2023-07-31T02:10:16;24.00;54.40
16901;DHT22;8567;52.540;6.434;2023-07-31T02:12:43;24.00;54.40
16901;DHT22;8567;52.540;6.434;2023-07-31T02:15:10;24.00;54.50
16901;DHT22;8567;52.540;6.434;2023-07-31T02:17:38;24.00;54.40
16901;DHT22;8567;52.540;6.434;2023-07-31T02:20:06;24.00;54.30
16901;DHT22;8567;52.540;6.434;2023-07-31T02:22:33;24.00;54.40
16901;DHT22;8567;52.540;6.434;2023-07-31T02:25:00;24.00;54.40
16901;DHT22;8567;52.540;6.434;2023-07-31T02:27:27;24.00;54.40
16901;DHT22;8567;52.540;6.434;2023-07-31T02:29:54;24.10;54.40
16901;DHT22;8567;52.540;6.434;2023-07-31T02:32:21;24.10;54.40
16901;DHT22;8567;52.540;6.434;2023-07-31T02:34:49;24.00;54.40
16901;DHT22;8567;52.540;6.434;2023-07-31T02:37:16;24.00;54.50
16901;DHT22;8567;52.540;6.434;2023-07-31T02:39:43;24.00;54.40
16901;DHT22;8567;52.540;6.434;2023-07-31T02:42:10;24.00;54.50
16901;DHT22;8567;52.540;6.434;2023-07-31T02:44:37;24.00;54.60
16901;DHT22;8567;52.540;6.434;2023-07-31T02:47:04;24.00;54.60
16901;DHT22;8567;52.540;6.434;2023-07-31T02:49:30;24.00;54.60
16901;DHT22;8567;52.540;6.434;2023-07-31T02:51:59;24.00;54.70
16901;DHT22;8567;52.540;6.434;2023-07-31T02:54:25;24.00;54.70
16901;DHT22;8567;52.540;6.434;2023-07-31T02:56:52;24.00;54.70
16901;DHT22;8567;52.540;6.434;2023-07-31T02:59:20;24.00;54.70
16901;DHT22;8567;52.540;6.434;2023-07-31T03:01:47;24.00;54.70
16901;DHT22;8567;52.540;6.434;2023-07-31T03:04:14;24.00;54.70
16901;DHT22;8567;52.540;6.434;2023-07-31T03:06:40;24.00;54.70
16901;DHT22;8567;52.540;6.434;2023-07-31T03:09:08;24.00;54.70
16901;DHT22;8567;52.540;6.434;2023-07-31T03:11:35;24.00;54.70
16901;DHT22;8567;52.540;6.434;2023-07-31T03:14:02;24.00;54.70
16901;DHT22;8567;52.540;6.434;2023-07-31T03:16:29;24.00;54.80
16901;DHT22;8567;52.540;6.434;2023-07-31T03:18:56;24.00;54.90
16901;DHT22;8567;52.540;6.434;2023-07-31T03:21:23;24.00;54.90
16901;DHT22;8567;52.540;6.434;2023-07-31T03:23:50;24.00;55.00
16901;DHT22;8567;52.540;6.434;2023-07-31T03:26:18;24.00;54.90
16901;DHT22;8567;52.540;6.434;2023-07-31T03:28:45;24.00;54.90
16901;DHT22;8567;52.540;6.434;2023-07-31T03:31:12;24.00;54.90
16901;DHT22;8567;52.540;6.434;2023-07-31T03:33:38;24.00;55.00
16901;DHT22;8567;52.540;6.434;2023-07-31T03:36:05;24.00;55.00
16901;DHT22;8567;52.540;6.434;2023-07-31T03:38:33;24.00;55.00
16901;DHT22;8567;52.540;6.434;2023-07-31T03:41:00;24.00;55.00
16901;DHT22;8567;52.540;6.434;2023-07-31T03:43:29;24.00;55.00
16901;DHT22;8567;52.540;6.434;2023-07-31T03:45:56;24.00;54.90
16901;DHT22;8567;52.540;6.434;2023-07-31T03:48:23;24.00;54.90
16901;DHT22;8567;52.540;6.434;2023-07-31T03:50:50;24.00;55.00
16901;DHT22;8567;52.540;6.434;2023-07-31T03:53:16;24.00;55.10
16901;DHT22;8567;52.540;6.434;2023-07-31T03:55:43;24.00;55.10
16901;DHT22;8567;52.540;6.434;2023-07-31T03:58:10;23.90;55.10
16901;DHT22;8567;52.540;6.434;2023-07-31T04:00:40;24.00;55.20
16901;DHT22;8567;52.540;6.434;2023-07-31T04:03:07;24.00;55.20
16901;DHT22;8567;52.540;6.434;2023-07-31T04:05:38;24.00;55.20
16901;DHT22;8567;52.540;6.434;2023-07-31T04:08:05;24.00;55.10
16901;DHT22;8567;52.540;6.434;2023-07-31T04:10:32;24.00;55.10
16901;DHT22;8567;52.540;6.434;2023-07-31T04:12:59;24.00;55.20
16901;DHT22;8567;52.540;6.434;2023-07-31T04:15:26;23.90;55.20
16901;DHT22;8567;52.540;6.434;2023-07-31T04:17:54;24.00;55.20
16901;DHT22;8567;52.540;6.434;2023-07-31T04:20:21;24.00;55.20
16901;DHT22;8567;52.540;6.434;2023-07-31T04:22:48;24.00;55.20
16901;DHT22;8567;52.540;6.434;2023-07-31T04:25:15;23.90;55.30
16901;DHT22;8567;52.540;6.434;2023-07-31T04:27:41;24.00;55.30
16901;DHT22;8567;52.540;6.434;2023-07-31T04:30:09;24.00;55.30
16901;DHT22;8567;52.540;6.434;2023-07-31T04:32:36;24.00;55.20
16901;DHT22;8567;52.540;6.434;2023-07-31T04:35:04;24.00;55.30
16901;DHT22;8567;52.540;6.434;2023-07-31T04:37:31;24.00;55.30
16901;DHT22;8567;52.540;6.434;2023-07-31T04:39:58;24.00;55.30
16901;DHT22;8567;52.540;6.434;2023-07-31T04:42:25;24.00;55.30
16901;DHT22;8567;52.540;6.434;2023-07-31T04:44:52;24.00;55.40
16901;DHT22;8567;52.540;6.434;2023-07-31T04:47:19;23.90;55.40
16901;DHT22;8567;52.540;6.434;2023-07-31T04:49:46;24.00;55.30
16901;DHT22;8567;52.540;6.434;2023-07-31T04:52:14;24.00;55.30
16901;DHT22;8567;52.540;6.434;2023-07-31T04:54:41;24.00;55.40
16901;DHT22;8567;52.540;6.434;2023-07-31T04:57:08;24.00;55.40
16901;DHT22;8567;52.540;6.434;2023-07-31T04:59:35;24.00;55.40
16901;DHT22;8567;52.540;6.434;2023-07-31T05:02:02;24.00;55.40
16901;DHT22;8567;52.540;6.434;2023-07-31T05:04:29;24.00;55.40
16901;DHT22;8567;52.540;6.434;2023-07-31T05:06:56;23.90;55.50
16901;DHT22;8567;52.540;6.434;2023-07-31T05:09:24;24.00;55.50
16901;DHT22;8567;52.540;6.434;2023-07-31T05:11:51;24.00;55.40
16901;DHT22;8567;52.540;6.434;2023-07-31T05:14:18;23.90;55.50
16901;DHT22;8567;52.540;6.434;2023-07-31T05:16:45;23.90;55.60
16901;DHT22;8567;52.540;6.434;2023-07-31T05:19:12;24.00;55.60
16901;DHT22;8567;52.540;6.434;2023-07-31T05:21:40;24.00;55.60
16901;DHT22;8567;52.540;6.434;2023-07-31T05:24:06;24.00;55.60
16901;DHT22;8567;52.540;6.434;2023-07-31T05:26:34;24.00;55.60
16901;DHT22;8567;52.540;6.434;2023-07-31T05:29:01;23.90;55.60
16901;DHT22;8567;52.540;6.434;2023-07-31T05:31:28;24.00;55.60
16901;DHT22;8567;52.540;6.434;2023-07-31T05:33:55;24.00;55.70
16901;DHT22;8567;52.540;6.434;2023-07-31T05:36:22;24.00;55.70
16901;DHT22;8567;52.540;6.434;2023-07-31T05:38:49;24.00;55.70
16901;DHT22;8567;52.540;6.434;2023-07-31T05:41:16;24.00;55.70
16901;DHT22;8567;52.540;6.434;2023-07-31T05:43:45;24.00;55.70
16901;DHT22;8567;52.540;6.434;2023-07-31T05:46:12;24.00;55.80
16901;DHT22;8567;52.540;6.434;2023-07-31T05:48:38;24.00;55.70
16901;DHT22;8567;52.540;6.434;2023-07-31T05:51:05;24.00;55.70
16901;DHT22;8567;52.540;6.434;2023-07-31T05:53:32;24.00;55.80
16901;DHT22;8567;52.540;6.434;2023-07-31T05:55:59;24.00;55.80
16901;DHT22;8567;52.540;6.434;2023-07-31T05:58:26;24.00;55.80
16901;DHT22;8567;52.540;6.434;2023-07-31T06:00:54;24.00;55.80
16901;DHT22;8567;52.540;6.434;2023-07-31T06:03:21;24.00;55.80
16901;DHT22;8567;52.540;6.434;2023-07-31T06:05:48;24.00;55.70
16901;DHT22;8567;52.540;6.434;2023-07-31T06:08:15;24.00;55.80
16901;DHT22;8567;52.540;6.434;2023-07-31T06:10:42;24.00;55.70
16901;DHT22;8567;52.540;6.434;2023-07-31T06:13:09;24.00;55.70
16901;DHT22;8567;52.540;6.434;2023-07-31T06:15:36;24.00;55.80
16901;DHT22;8567;52.540;6.434;2023-07-31T06:18:04;24.00;55.80
16901;DHT22;8567;52.540;6.434;2023-07-31T06:20:33;24.00;55.80
16901;DHT22;8567;52.540;6.434;2023-07-31T06:23:00;24.00;55.80
16901;DHT22;8567;52.540;6.434;2023-07-31T06:25:27;24.00;55.80
16901;DHT22;8567;52.540;6.434;2023-07-31T06:27:53;24.00;55.80
16901;DHT22;8567;52.540;6.434;2023-07-31T06:30:20;24.00;55.70
16901;DHT22;8567;52.540;6.434;2023-07-31T06:32:47;24.00;55.80
16901;DHT22;8567;52.540;6.434;2023-07-31T06:40:11;24.70;55.20
16901;DHT22;8567;52.540;6.434;2023-07-31T06:42:37;24.40;55.30
16901;DHT22;8567;52.540;6.434;2023-07-31T06:45:05;24.40;55.10
16901;DHT22;8567;52.540;6.434;2023-07-31T06:47:33;24.40;55.10
16901;DHT22;8567;52.540;6.434;2023-07-31T06:50:00;24.50;55.10
16901;DHT22;8567;52.540;6.434;2023-07-31T06:52:28;24.50;55.00
16901;DHT22;8567;52.540;6.434;2023-07-31T06:55:02;24.60;54.90
16901;DHT22;8567;52.540;6.434;2023-07-31T06:57:30;24.60;54.70
16901;DHT22;8567;52.540;6.434;2023-07-31T06:59:56;24.70;54.80
16901;DHT22;8567;52.540;6.434;2023-07-31T07:02:23;24.70;54.80
16901;DHT22;8567;52.540;6.434;2023-07-31T07:04:50;24.70;54.80
16901;DHT22;8567;52.540;6.434;2023-07-31T07:07:18;24.60;54.80
16901;DHT22;8567;52.540;6.434;2023-07-31T07:09:47;24.60;54.90
16901;DHT22;8567;52.540;6.434;2023-07-31T07:12:14;24.60;54.80
16901;DHT22;8567;52.540;6.434;2023-07-31T07:14:40;24.70;54.90
16901;DHT22;8567;52.540;6.434;2023-07-31T07:17:07;24.70;54.80
16901;DHT22;8567;52.540;6.434;2023-07-31T07:19:34;24.70;55.00
16901;DHT22;8567;52.540;6.434;2023-07-31T07:22:01;24.70;54.90
16901;DHT22;8567;52.540;6.434;2023-07-31T07:24:28;24.70;55.00
16901;DHT22;8567;52.540;6.434;2023-07-31T07:26:56;24.80;54.80
16901;DHT22;8567;52.540;6.434;2023-07-31T07:29:23;24.70;54.80
16901;DHT22;8567;52.540;6.434;2023-07-31T07:31:50;24.80;54.80
16901;DHT22;8567;52.540;6.434;2023-07-31T07:34:17;24.70;54.80
16901;DHT22;8567;52.540;6.434;2023-07-31T07:36:43;24.80;54.80
16901;DHT22;8567;52.540;6.434;2023-07-31T07:39:11;24.70;54.90
16901;DHT22;8567;52.540;6.434;2023-07-31T07:41:38;24.60;54.90
16901;DHT22;8567;52.540;6.434;2023-07-31T07:44:08;24.60;55.00
16901;DHT22;8567;52.540;6.434;2023-07-31T07:46:35;24.60;55.20
16901;DHT22;8567;52.540;6.434;2023-07-31T07:49:01;24.60;55.20
16901;DHT22;8567;52.540;6.434;2023-07-31T07:51:28;24.70;55.00
16901;DHT22;8567;52.540;6.434;2023-07-31T07:53:57;24.70;54.90
16901;DHT22;8567;52.540;6.434;2023-07-31T07:56:25;24.70;54.90
16901;DHT22;8567;52.540;6.434;2023-07-31T07:58:52;24.70;55.00
16901;DHT22;8567;52.540;6.434;2023-07-31T08:01:21;24.60;55.10
16901;DHT22;8567;52.540;6.434;2023-07-31T08:03:48;24.60;55.10
16901;DHT22;8567;52.540;6.434;2023-07-31T08:06:14;24.70;55.20
16901;DHT22;8567;52.540;6.434;2023-07-31T08:08:41;24.70;55.20
16901;DHT22;8567;52.540;6.434;2023-07-31T08:11:08;24.70;55.10
16901;DHT22;8567;52.540;6.434;2023-07-31T08:13:35;24.80;55.00
16901;DHT22;8567;52.540;6.434;2023-07-31T08:16:02;24.70;55.00
16901;DHT22;8567;52.540;6.434;2023-07-31T08:18:31;24.80;55.10
16901;DHT22;8567;52.540;6.434;2023-07-31T08:20:58;24.70;55.10
16901;DHT22;8567;52.540;6.434;2023-07-31T08:23:25;24.80;55.10
16901;DHT22;8567;52.540;6.434;2023-07-31T08:25:52;24.90;55.00
16901;DHT22;8567;52.540;6.434;2023-07-31T08:28:18;24.90;55.20
16901;DHT22;8567;52.540;6.434;2023-07-31T08:30:45;25.00;54.90
16901;DHT22;8567;52.540;6.434;2023-07-31T08:33:12;25.00;55.00
16901;DHT22;8567;52.540;6.434;2023-07-31T08:35:40;25.00;54.80
16901;DHT22;8567;52.540;6.434;2023-07-31T08:38:07;25.00;54.70
16901;DHT22;8567;52.540;6.434;2023-07-31T08:40:36;25.00;54.70
16901;DHT22;8567;52.540;6.434;2023-07-31T08:43:03;25.00;54.70
16901;DHT22;8567;52.540;6.434;2023-07-31T08:45:31;25.10;54.90
16901;DHT22;8567;52.540;6.434;2023-07-31T08:47:59;25.10;55.40
16901;DHT22;8567;52.540;6.434;2023-07-31T08:50:26;25.10;54.70
16901;DHT22;8567;52.540;6.434;2023-07-31T08:52:55;25.10;54.60
16901;DHT22;8567;52.540;6.434;2023-07-31T08:55:21;25.10;55.00
16901;DHT22;8567;52.540;6.434;2023-07-31T08:57:51;25.40;54.30
16901;DHT22;8567;52.540;6.434;2023-07-31T09:00:19;25.00;54.90
16901;DHT22;8567;52.540;6.434;2023-07-31T09:02:53;25.00;55.50
16901;DHT22;8567;52.540;6.434;2023-07-31T09:05:21;25.10;54.80
16901;DHT22;8567;52.540;6.434;2023-07-31T09:07:50;25.00;54.70
16901;DHT22;8567;52.540;6.434;2023-07-31T09:10:19;24.80;55.00
16901;DHT22;8567;52.540;6.434;2023-07-31T09:12:46;24.80;55.20
16901;DHT22;8567;52.540;6.434;2023-07-31T09:15:14;24.80;55.40
16901;DHT22;8567;52.540;6.434;2023-07-31T09:17:41;24.90;55.60
16901;DHT22;8567;52.540;6.434;2023-07-31T09:20:16;24.90;55.70
16901;DHT22;8567;52.540;6.434;2023-07-31T09:22:44;25.00;55.90
16901;DHT22;8567;52.540;6.434;2023-07-31T09:25:19;24.90;56.00
16901;DHT22;8567;52.540;6.434;2023-07-31T09:27:47;25.00;56.10
16901;DHT22;8567;52.540;6.434;2023-07-31T09:30:14;25.00;55.90
16901;DHT22;8567;52.540;6.434;2023-07-31T09:32:42;25.00;56.30
16901;DHT22;8567;52.540;6.434;2023-07-31T09:35:27;25.10;55.90
16901;DHT22;8567;52.540;6.434;2023-07-31T09:37:57;25.10;56.00
16901;DHT22;8567;52.540;6.434;2023-07-31T09:40:30;25.10;55.80
16901;DHT22;8567;52.540;6.434;2023-07-31T09:42:58;25.10;56.40
16901;DHT22;8567;52.540;6.434;2023-07-31T09:45:26;25.10;55.80
16901;DHT22;8567;52.540;6.434;2023-07-31T09:47:53;25.10;55.80
16901;DHT22;8567;52.540;6.434;2023-07-31T09:50:21;25.10;55.90
16901;DHT22;8567;52.540;6.434;2023-07-31T09:52:48;25.10;56.00
16901;DHT22;8567;52.540;6.434;2023-07-31T09:55:16;25.10;55.80
16901;DHT22;8567;52.540;6.434;2023-07-31T09:57:45;25.10;55.80
16901;DHT22;8567;52.540;6.434;2023-07-31T10:00:13;25.00;55.90
16901;DHT22;8567;52.540;6.434;2023-07-31T10:02:41;25.00;55.90
16901;DHT22;8567;52.540;6.434;2023-07-31T10:05:08;25.00;55.90
16901;DHT22;8567;52.540;6.434;2023-07-31T10:07:37;24.90;56.00
16901;DHT22;8567;52.540;6.434;2023-07-31T10:10:07;25.00;56.00
16901;DHT22;8567;52.540;6.434;2023-07-31T10:12:36;25.00;56.00
16901;DHT22;8567;52.540;6.434;2023-07-31T10:15:06;25.10;55.90
16901;DHT22;8567;52.540;6.434;2023-07-31T10:17:35;25.10;56.00
16901;DHT22;8567;52.540;6.434;2023-07-31T10:20:03;25.10;55.80
16901;DHT22;8567;52.540;6.434;2023-07-31T10:22:31;24.80;56.50
16901;DHT22;8567;52.540;6.434;2023-07-31T10:24:59;24.60;57.50
16901;DHT22;8567;52.540;6.434;2023-07-31T10:27:27;24.60;57.50
16901;DHT22;8567;52.540;6.434;2023-07-31T10:29:55;24.70;57.70
16901;DHT22;8567;52.540;6.434;2023-07-31T10:32:24;24.60;58.10
16901;DHT22;8567;52.540;6.434;2023-07-31T10:34:52;24.60;58.30
16901;DHT22;8567;52.540;6.434;2023-07-31T10:37:23;24.60;58.20
16901;DHT22;8567;52.540;6.434;2023-07-31T10:39:58;24.60;58.40
16901;DHT22;8567;52.540;6.434;2023-07-31T10:42:30;24.50;58.60
16901;DHT22;8567;52.540;6.434;2023-07-31T10:44:58;24.50;58.90
16901;DHT22;8567;52.540;6.434;2023-07-31T10:47:27;24.50;59.10
16901;DHT22;8567;52.540;6.434;2023-07-31T10:50:11;24.40;59.30
16901;DHT22;8567;52.540;6.434;2023-07-31T10:52:38;24.50;59.30
16901;DHT22;8567;52.540;6.434;2023-07-31T10:55:30;24.40;59.50
16901;DHT22;8567;52.540;6.434;2023-07-31T10:57:58;24.40;59.60
16901;DHT22;8567;52.540;6.434;2023-07-31T11:00:31;24.40;59.60
16901;DHT22;8567;52.540;6.434;2023-07-31T11:03:04;24.50;59.50
16901;DHT22;8567;52.540;6.434;2023-07-31T11:05:42;24.40;59.60
16901;DHT22;8567;52.540;6.434;2023-07-31T11:08:13;24.60;59.40
16901;DHT22;8567;52.540;6.434;2023-07-31T11:10:40;24.50;59.70
16901;DHT22;8567;52.540;6.434;2023-07-31T11:13:07;24.60;59.50
16901;DHT22;8567;52.540;6.434;2023-07-31T11:15:34;24.70;59.10
16901;DHT22;8567;52.540;6.434;2023-07-31T11:18:03;24.70;58.70
16901;DHT22;8567;52.540;6.434;2023-07-31T11:20:31;24.80;58.50
16901;DHT22;8567;52.540;6.434;2023-07-31T11:23:00;24.90;58.00
16901;DHT22;8567;52.540;6.434;2023-07-31T11:25:29;24.90;57.90
16901;DHT22;8567;52.540;6.434;2023-07-31T11:27:57;24.90;57.80
16901;DHT22;8567;52.540;6.434;2023-07-31T11:30:24;24.90;57.80
16901;DHT22;8567;52.540;6.434;2023-07-31T11:32:50;24.90;57.80
16901;DHT22;8567;52.540;6.434;2023-07-31T11:35:19;24.90;57.80
16901;DHT22;8567;52.540;6.434;2023-07-31T11:37:46;24.90;57.80
16901;DHT22;8567;52.540;6.434;2023-07-31T11:40:12;24.90;57.80
16901;DHT22;8567;52.540;6.434;2023-07-31T11:42:39;24.90;57.80
16901;DHT22;8567;52.540;6.434;2023-07-31T11:45:08;24.90;57.80
16901;DHT22;8567;52.540;6.434;2023-07-31T11:47:36;24.90;57.70
16901;DHT22;8567;52.540;6.434;2023-07-31T11:50:05;24.90;57.70
16901;DHT22;8567;52.540;6.434;2023-07-31T11:52:36;24.90;57.70
16901;DHT22;8567;52.540;6.434;2023-07-31T11:55:05;25.00;57.70
16901;DHT22;8567;52.540;6.434;2023-07-31T11:57:35;24.90;57.70
16901;DHT22;8567;52.540;6.434;2023-07-31T12:00:04;25.00;57.80
16901;DHT22;8567;52.540;6.434;2023-07-31T12:02:31;25.00;57.70
16901;DHT22;8567;52.540;6.434;2023-07-31T12:04:58;25.00;57.70
16901;DHT22;8567;52.540;6.434;2023-07-31T12:07:25;25.00;57.70
16901;DHT22;8567;52.540;6.434;2023-07-31T12:09:54;25.00;57.70
16901;DHT22;8567;52.540;6.434;2023-07-31T12:12:22;25.00;57.70
16901;DHT22;8567;52.540;6.434;2023-07-31T12:14:49;25.00;57.60
16901;DHT22;8567;52.540;6.434;2023-07-31T12:17:17;25.10;57.70
16901;DHT22;8567;52.540;6.434;2023-07-31T12:19:45;25.10;58.00
16901;DHT22;8567;52.540;6.434;2023-07-31T12:22:12;25.10;57.90
16901;DHT22;8567;52.540;6.434;2023-07-31T12:24:39;25.10;58.10
16901;DHT22;8567;52.540;6.434;2023-07-31T12:27:12;25.10;58.20
16901;DHT22;8567;52.540;6.434;2023-07-31T12:29:41;25.10;57.90
16901;DHT22;8567;52.540;6.434;2023-07-31T12:32:20;25.20;57.80
16901;DHT22;8567;52.540;6.434;2023-07-31T12:34:47;25.10;57.60
16901;DHT22;8567;52.540;6.434;2023-07-31T12:37:14;25.20;57.40
16901;DHT22;8567;52.540;6.434;2023-07-31T12:39:41;25.20;57.40
16901;DHT22;8567;52.540;6.434;2023-07-31T12:42:08;25.20;57.50
16901;DHT22;8567;52.540;6.434;2023-07-31T12:44:36;25.20;57.40
16901;DHT22;8567;52.540;6.434;2023-07-31T12:47:04;25.30;57.20
16901;DHT22;8567;52.540;6.434;2023-07-31T12:49:31;25.30;57.20
16901;DHT22;8567;52.540;6.434;2023-07-31T12:51:57;25.30;57.10
16901;DHT22;8567;52.540;6.434;2023-07-31T12:54:24;25.30;57.30
16901;DHT22;8567;52.540;6.434;2023-07-31T12:56:51;25.20;57.30
16901;DHT22;8567;52.540;6.434;2023-07-31T12:59:18;25.30;57.40
16901;DHT22;8567;52.540;6.434;2023-07-31T13:01:46;25.30;57.20
16901;DHT22;8567;52.540;6.434;2023-07-31T13:04:13;25.30;57.10
16901;DHT22;8567;52.540;6.434;2023-07-31T13:06:40;25.40;57.40
16901;DHT22;8567;52.540;6.434;2023-07-31T13:09:07;25.30;57.00
16901;DHT22;8567;52.540;6.434;2023-07-31T13:11:34;25.40;56.90
16901;DHT22;8567;52.540;6.434;2023-07-31T13:14:01;25.40;56.80
16901;DHT22;8567;52.540;6.434;2023-07-31T13:16:28;25.40;56.90
16901;DHT22;8567;52.540;6.434;2023-07-31T13:18:56;25.40;56.90
16901;DHT22;8567;52.540;6.434;2023-07-31T13:21:23;25.40;56.90
16901;DHT22;8567;52.540;6.434;2023-07-31T13:23:50;25.50;57.60
16901;DHT22;8567;52.540;6.434;2023-07-31T13:26:17;25.60;56.90
16901;DHT22;8567;52.540;6.434;2023-07-31T13:28:43;25.60;56.80
16901;DHT22;8567;52.540;6.434;2023-07-31T13:31:10;25.60;56.60
16901;DHT22;8567;52.540;6.434;2023-07-31T13:33:37;25.60;56.60
16901;DHT22;8567;52.540;6.434;2023-07-31T13:36:06;25.60;56.60
16901;DHT22;8567;52.540;6.434;2023-07-31T13:38:33;25.60;56.70
16901;DHT22;8567;52.540;6.434;2023-07-31T13:40:59;25.50;56.90
16901;DHT22;8567;52.540;6.434;2023-07-31T13:43:26;25.50;56.90
16901;DHT22;8567;52.540;6.434;2023-07-31T13:45:53;25.50;57.00
16901;DHT22;8567;52.540;6.434;2023-07-31T13:48:20;25.50;56.80
16901;DHT22;8567;52.540;6.434;2023-07-31T13:50:47;25.50;56.80
16901;DHT22;8567;52.540;6.434;2023-07-31T13:53:15;25.60;56.70
16901;DHT22;8567;52.540;6.434;2023-07-31T13:55:42;25.60;56.60
16901;DHT22;8567;52.540;6.434;2023-07-31T13:58:10;25.50;56.80
16901;DHT22;8567;52.540;6.434;2023-07-31T14:00:37;25.50;56.90
16901;DHT22;8567;52.540;6.434;2023-07-31T14:03:04;25.50;56.90
16901;DHT22;8567;52.540;6.434;2023-07-31T14:05:31;25.50;56.80
16901;DHT22;8567;52.540;6.434;2023-07-31T14:07:58;25.60;56.80
16901;DHT22;8567;52.540;6.434;2023-07-31T14:10:26;25.50;57.00
16901;DHT22;8567;52.540;6.434;2023-07-31T14:12:53;25.60;57.10
16901;DHT22;8567;52.540;6.434;2023-07-31T14:15:20;25.70;57.00
16901;DHT22;8567;52.540;6.434;2023-07-31T14:17:46;25.60;57.10
16901;DHT22;8567;52.540;6.434;2023-07-31T14:20:13;25.60;57.30
16901;DHT22;8567;52.540;6.434;2023-07-31T14:22:40;25.60;57.40
16901;DHT22;8567;52.540;6.434;2023-07-31T14:25:07;25.50;57.80
16901;DHT22;8567;52.540;6.434;2023-07-31T14:27:37;25.60;57.40
16901;DHT22;8567;52.540;6.434;2023-07-31T14:30:05;25.70;57.10
16901;DHT22;8567;52.540;6.434;2023-07-31T14:32:32;25.70;57.20
16901;DHT22;8567;52.540;6.434;2023-07-31T14:34:59;25.70;57.10
16901;DHT22;8567;52.540;6.434;2023-07-31T14:37:26;25.70;57.20
16901;DHT22;8567;52.540;6.434;2023-07-31T14:40:03;25.60;57.90
16901;DHT22;8567;52.540;6.434;2023-07-31T14:42:30;25.50;57.60
16901;DHT22;8567;52.540;6.434;2023-07-31T14:44:58;25.40;57.70
16901;DHT22;8567;52.540;6.434;2023-07-31T14:47:25;25.40;58.00
16901;DHT22;8567;52.540;6.434;2023-07-31T14:49:52;25.40;57.80
16901;DHT22;8567;52.540;6.434;2023-07-31T14:52:19;25.40;57.80
16901;DHT22;8567;52.540;6.434;2023-07-31T14:54:45;25.40;58.00
16901;DHT22;8567;52.540;6.434;2023-07-31T14:57:12;25.40;58.00
16901;DHT22;8567;52.540;6.434;2023-07-31T14:59:39;25.40;58.00
16901;DHT22;8567;52.540;6.434;2023-07-31T15:02:08;25.50;57.80
16901;DHT22;8567;52.540;6.434;2023-07-31T15:04:36;25.50;57.70
16901;DHT22;8567;52.540;6.434;2023-07-31T15:07:03;25.50;57.60
16901;DHT22;8567;52.540;6.434;2023-07-31T15:09:30;25.40;57.90
16901;DHT22;8567;52.540;6.434;2023-07-31T15:11:57;25.50;57.80
16901;DHT22;8567;52.540;6.434;2023-07-31T15:14:24;25.50;57.70
16901;DHT22;8567;52.540;6.434;2023-07-31T15:16:53;25.50;57.60
16901;DHT22;8567;52.540;6.434;2023-07-31T15:19:21;25.50;57.60
16901;DHT22;8567;52.540;6.434;2023-07-31T15:21:48;25.50;57.60
16901;DHT22;8567;52.540;6.434;2023-07-31T15:24:15;25.40;57.80
16901;DHT22;8567;52.540;6.434;2023-07-31T15:26:42;25.40;57.70
16901;DHT22;8567;52.540;6.434;2023-07-31T15:29:09;25.40;57.80
16901;DHT22;8567;52.540;6.434;2023-07-31T15:31:41;25.40;57.90
16901;DHT22;8567;52.540;6.434;2023-07-31T15:34:08;25.30;58.00
16901;DHT22;8567;52.540;6.434;2023-07-31T15:36:36;25.30;58.00
16901;DHT22;8567;52.540;6.434;2023-07-31T15:39:03;25.30;58.00
16901;DHT22;8567;52.540;6.434;2023-07-31T15:41:30;25.30;58.00
16901;DHT22;8567;52.540;6.434;2023-07-31T15:43:56;25.30;58.00
16901;DHT22;8567;52.540;6.434;2023-07-31T15:46:23;25.30;58.10
16901;DHT22;8567;52.540;6.434;2023-07-31T15:48:50;25.30;58.10
16901;DHT22;8567;52.540;6.434;2023-07-31T15:51:19;25.20;58.10
16901;DHT22;8567;52.540;6.434;2023-07-31T15:53:47;25.20;58.10